Time;durP1;ratioP1;P1;durP2;ratioP2;P2;SDS_P1;SDS_P2;PMS_P1;PMS_P2;Temp;Humidity;BMP_temperature;BMP_pressure;BME280_temperature;BME280_humidity;BME280_pressure;Samples;Min_cycle;Max_cycle;Signal;HPM_P1;HPM_P2
2023/07/03 00:01:30;;;;;;;;;;;;;;;27.72;40.18;100122.84;104601;1284;61472;-83
2023/07/03 00:03:57;;;;;;;;;;;;;;;27.72;40.39;100122.34;104599;1283;59695;-83
2023/07/03 00:06:22;;;;;;;;;;;;;;;27.72;40.39;100127.55;104474;1284;61378;-83
2023/07/03 00:08:48;;;;;;;;;;;;;;;27.72;40.15;100134.05;104755;1284;61246;-83
2023/07/03 00:11:14;;;;;;;;;;;;;;;27.71;40.37;100137.52;104672;1283;61427;-83
2023/07/03 00:13:40;;;;;;;;;;;;;;;27.71;40.26;100142.59;104048;1284;61436;-83
2023/07/03 00:16:05;;;;;;;;;;;;;;;27.71;40.08;100141.69;104459;1284;59047;-83
2023/07/03 00:18:31;;;;;;;;;;;;;;;27.71;40.21;100141.34;104575;1284;59919;-83
2023/07/03 00:20:57;;;;;;;;;;;;;;;27.71;40.26;100141.22;104246;1287;59544;-83
2023/07/03 00:23:24;;;;;;;;;;;;;;;27.71;40.33;100143.39;104518;1284;65042;-83
2023/07/03 00:25:50;;;;;;;;;;;;;;;27.71;40.30;100142.10;104570;1283;61306;-83
2023/07/03 00:28:15;;;;;;;;;;;;;;;27.70;40.28;100144.13;104600;1284;60368;-83
2023/07/03 00:30:41;;;;;;;;;;;;;;;27.70;40.29;100144.34;104564;1284;61250;-83
2023/07/03 00:33:06;;;;;;;;;;;;;;;27.70;40.37;100143.42;104294;1284;59888;-83
2023/07/03 00:35:32;;;;;;;;;;;;;;;27.70;40.34;100144.54;104576;1284;61393;-83
2023/07/03 00:37:58;;;;;;;;;;;;;;;27.70;40.18;100140.58;104411;1284;65643;-83
2023/07/03 00:40:23;;;;;;;;;;;;;;;27.70;40.33;100139.80;104556;1284;59985;-83
2023/07/03 00:42:52;;;;;;;;;;;;;;;27.70;40.37;100144.23;104411;1284;59422;-83
2023/07/03 00:45:19;;;;;;;;;;;;;;;27.70;40.28;100144.23;104434;1284;64851;-83
2023/07/03 00:47:45;;;;;;;;;;;;;;;27.70;40.38;100143.86;104527;1284;66568;-83
2023/07/03 00:50:11;;;;;;;;;;;;;;;27.69;40.36;100140.27;104604;1284;61377;-83
2023/07/03 00:52:37;;;;;;;;;;;;;;;27.69;40.26;100140.63;104382;1284;60041;-83
2023/07/03 00:55:03;;;;;;;;;;;;;;;27.70;40.41;100142.77;104470;1283;60023;-83
2023/07/03 00:57:28;;;;;;;;;;;;;;;27.69;40.33;100147.55;104649;1283;60092;-83
2023/07/03 00:59:54;;;;;;;;;;;;;;;27.69;40.54;100144.44;104798;1284;61270;-83
2023/07/03 01:02:22;;;;;;;;;;;;;;;27.69;40.61;100143.25;104405;1284;60521;-83
2023/07/03 01:04:55;;;;;;;;;;;;;;;27.68;40.28;100148.16;104657;1284;61278;-83
2023/07/03 01:07:22;;;;;;;;;;;;;;;27.69;40.37;100145.79;104435;1285;64685;-83
2023/07/03 01:09:49;;;;;;;;;;;;;;;27.69;40.33;100145.95;104625;1284;65824;-83
2023/07/03 01:12:14;;;;;;;;;;;;;;;27.69;40.54;100145.24;104510;1284;60157;-83
2023/07/03 01:14:40;;;;;;;;;;;;;;;27.68;40.64;100142.36;104536;1284;61398;-83
2023/07/03 01:17:09;;;;;;;;;;;;;;;27.68;40.65;100142.61;104621;1284;61470;-83
2023/07/03 01:19:35;;;;;;;;;;;;;;;27.68;40.44;100145.53;104374;1284;66766;-83
2023/07/03 01:22:13;;;;;;;;;;;;;;;27.68;40.63;100150.70;104329;1284;59954;-83
2023/07/03 01:24:49;;;;;;;;;;;;;;;27.68;40.62;100155.27;104615;1284;61268;-83
2023/07/03 01:27:15;;;;;;;;;;;;;;;27.68;40.49;100159.45;104566;1288;73833;-83
2023/07/03 01:29:42;;;;;;;;;;;;;;;27.67;40.44;100161.27;104235;1284;62222;-83
2023/07/03 01:32:09;;;;;;;;;;;;;;;27.68;40.60;100160.73;104299;1284;61155;-83
2023/07/03 01:34:34;;;;;;;;;;;;;;;27.68;40.74;100164.16;104447;1284;61855;-83
2023/07/03 01:37:00;;;;;;;;;;;;;;;27.68;40.49;100162.71;104398;1284;60047;-83
2023/07/03 01:39:25;;;;;;;;;;;;;;;27.67;40.77;100160.93;104521;1284;60106;-83
2023/07/03 01:41:51;;;;;;;;;;;;;;;27.67;40.71;100158.96;104492;1284;62324;-83
2023/07/03 01:44:18;;;;;;;;;;;;;;;27.67;40.77;100166.02;104616;1284;59353;-83
2023/07/03 01:46:43;;;;;;;;;;;;;;;27.66;40.63;100166.45;104572;1284;61328;-83
2023/07/03 01:49:12;;;;;;;;;;;;;;;27.67;40.74;100164.98;104563;1287;59981;-83
2023/07/03 01:51:40;;;;;;;;;;;;;;;27.67;40.86;100166.27;104614;1284;66675;-83
2023/07/03 01:54:09;;;;;;;;;;;;;;;27.67;40.95;100164.27;104750;1284;59943;-83
2023/07/03 01:56:35;;;;;;;;;;;;;;;27.66;40.91;100163.93;104488;1284;59922;-83
2023/07/03 01:59:11;;;;;;;;;;;;;;;27.66;40.93;100170.67;104570;1285;61263;-83
2023/07/03 02:01:46;;;;;;;;;;;;;;;27.66;40.76;100174.44;104548;1285;65844;-83
2023/07/03 02:04:31;;;;;;;;;;;;;;;27.66;40.83;100175.52;104186;1286;61163;-83
2023/07/03 02:06:57;;;;;;;;;;;;;;;27.66;40.77;100174.63;104305;1286;60136;-83
2023/07/03 02:09:22;;;;;;;;;;;;;;;27.66;40.83;100176.64;104397;1286;62280;-83
2023/07/03 02:11:48;;;;;;;;;;;;;;;27.65;40.73;100179.58;104359;1286;61537;-83
2023/07/03 02:14:13;;;;;;;;;;;;;;;27.65;40.67;100176.73;104228;1286;61408;-83
2023/07/03 02:16:41;;;;;;;;;;;;;;;27.65;40.83;100182.84;104420;1286;60065;-83
2023/07/03 02:19:07;;;;;;;;;;;;;;;27.66;40.77;100187.34;104443;1286;62029;-83
2023/07/03 02:21:35;;;;;;;;;;;;;;;27.65;40.97;100189.89;104371;1286;64077;-83
2023/07/03 02:24:01;;;;;;;;;;;;;;;27.65;40.87;100198.25;104402;1286;66617;-83
2023/07/03 02:26:27;;;;;;;;;;;;;;;27.65;40.72;100205.50;104163;1287;61451;-83
2023/07/03 02:28:52;;;;;;;;;;;;;;;27.65;40.77;100209.80;104403;1286;61575;-83
2023/07/03 02:31:18;;;;;;;;;;;;;;;27.65;40.61;100209.83;104931;1284;61372;-83
2023/07/03 02:33:43;;;;;;;;;;;;;;;27.64;40.64;100203.73;104478;1284;60303;-83
2023/07/03 02:36:09;;;;;;;;;;;;;;;27.64;40.78;100204.12;104580;1284;61482;-83
2023/07/03 02:38:35;;;;;;;;;;;;;;;27.64;40.72;100205.74;104480;1284;61412;-83
2023/07/03 02:41:02;;;;;;;;;;;;;;;27.64;40.85;100206.66;104723;1284;59956;-83
2023/07/03 02:43:27;;;;;;;;;;;;;;;27.64;40.82;100207.05;104667;1284;60128;-83
2023/07/03 02:45:52;;;;;;;;;;;;;;;27.64;40.84;100208.15;104172;1284;61544;-83
2023/07/03 02:48:18;;;;;;;;;;;;;;;27.64;40.74;100206.56;104260;1284;60076;-83
2023/07/03 02:50:43;;;;;;;;;;;;;;;27.64;40.98;100208.02;104695;1283;61393;-83
2023/07/03 02:53:09;;;;;;;;;;;;;;;27.64;41.03;100207.64;104273;1284;59912;-83
2023/07/03 02:55:34;;;;;;;;;;;;;;;27.63;40.81;100206.59;104465;1284;61380;-83
2023/07/03 02:58:00;;;;;;;;;;;;;;;27.63;40.82;100202.83;104600;1284;59917;-83
2023/07/03 03:00:27;;;;;;;;;;;;;;;27.64;40.92;100210.90;104589;1284;61392;-83
2023/07/03 03:02:53;;;;;;;;;;;;;;;27.63;40.89;100212.35;104335;1284;61370;-83
2023/07/03 03:05:18;;;;;;;;;;;;;;;27.63;40.71;100212.39;104670;1288;61254;-83
2023/07/03 03:07:44;;;;;;;;;;;;;;;27.63;40.75;100214.55;104541;1284;62005;-83
2023/07/03 03:10:09;;;;;;;;;;;;;;;27.63;40.79;100212.77;104634;1284;61402;-83
2023/07/03 03:12:35;;;;;;;;;;;;;;;27.63;40.90;100215.83;104606;1284;60022;-83
2023/07/03 03:15:00;;;;;;;;;;;;;;;27.63;41.01;100220.15;104534;1284;61356;-83
2023/07/03 03:17:25;;;;;;;;;;;;;;;27.63;40.92;100216.73;104466;1284;59978;-83
2023/07/03 03:19:51;;;;;;;;;;;;;;;27.63;40.96;100218.15;104693;1284;62157;-83
2023/07/03 03:22:16;;;;;;;;;;;;;;;27.63;40.76;100217.27;104609;1284;61405;-83
2023/07/03 03:24:42;;;;;;;;;;;;;;;27.63;40.71;100221.27;104590;1284;59994;-83
2023/07/03 03:27:08;;;;;;;;;;;;;;;27.63;40.91;100224.17;104467;1284;61417;-83
2023/07/03 03:29:34;;;;;;;;;;;;;;;27.63;40.95;100228.61;104776;1284;61389;-83
2023/07/03 03:32:00;;;;;;;;;;;;;;;27.63;41.03;100232.11;104299;1284;60005;-83
2023/07/03 03:34:25;;;;;;;;;;;;;;;27.63;40.67;100235.73;104550;1284;60028;-83
2023/07/03 03:36:52;;;;;;;;;;;;;;;27.63;40.79;100234.44;104654;1284;61386;-83
2023/07/03 03:39:17;;;;;;;;;;;;;;;27.63;40.83;100236.11;104702;1283;59904;-83
2023/07/03 03:41:43;;;;;;;;;;;;;;;27.63;41.02;100242.06;104549;1285;62297;-83
2023/07/03 03:44:08;;;;;;;;;;;;;;;27.63;40.97;100248.58;104462;1284;59436;-83
2023/07/03 03:46:34;;;;;;;;;;;;;;;27.62;40.81;100252.23;104294;1284;61260;-83
2023/07/03 03:49:00;;;;;;;;;;;;;;;27.62;41.12;100250.98;104530;1284;62046;-83
2023/07/03 03:51:26;;;;;;;;;;;;;;;27.62;41.05;100254.10;104477;1284;59882;-83
2023/07/03 03:53:51;;;;;;;;;;;;;;;27.62;41.06;100260.06;104751;1284;61386;-83
2023/07/03 03:56:16;;;;;;;;;;;;;;;27.62;40.87;100267.95;104282;1284;61255;-83
2023/07/03 03:58:42;;;;;;;;;;;;;;;27.63;40.94;100272.64;104102;1284;60532;-83
2023/07/03 04:01:07;;;;;;;;;;;;;;;27.61;40.99;100270.23;104618;1284;61339;-83
2023/07/03 04:03:33;;;;;;;;;;;;;;;27.62;41.03;100268.91;104534;1284;60055;-83
2023/07/03 04:05:58;;;;;;;;;;;;;;;27.62;41.27;100263.14;104691;1284;62369;-83
2023/07/03 04:08:24;;;;;;;;;;;;;;;27.61;41.12;100265.35;104535;1284;61424;-83
2023/07/03 04:10:49;;;;;;;;;;;;;;;27.61;41.26;100273.12;104501;1284;62224;-83
2023/07/03 04:13:15;;;;;;;;;;;;;;;27.61;41.01;100278.40;104578;1284;60140;-83
2023/07/03 04:15:52;;;;;;;;;;;;;;;27.60;41.27;100279.68;104615;1284;62275;-83
2023/07/03 04:18:19;;;;;;;;;;;;;;;27.61;41.04;100276.02;104662;1283;63848;-83
2023/07/03 04:20:44;;;;;;;;;;;;;;;27.61;41.28;100281.48;104711;1284;61301;-83
2023/07/03 04:23:09;;;;;;;;;;;;;;;27.60;41.07;100284.20;104746;1284;61401;-83
2023/07/03 04:25:35;;;;;;;;;;;;;;;27.61;41.05;100285.44;104612;1284;61398;-83
2023/07/03 04:28:00;;;;;;;;;;;;;;;27.61;40.96;100285.82;104751;1284;60077;-83
2023/07/03 04:30:26;;;;;;;;;;;;;;;27.60;40.93;100288.93;104671;1284;61379;-83
2023/07/03 04:32:54;;;;;;;;;;;;;;;27.61;41.02;100289.78;104741;1283;60074;-83
2023/07/03 04:35:23;;;;;;;;;;;;;;;27.60;41.15;100290.89;104642;1287;60012;-83
2023/07/03 04:37:49;;;;;;;;;;;;;;;27.60;41.12;100295.03;104339;1284;59926;-83
2023/07/03 04:40:15;;;;;;;;;;;;;;;27.61;41.17;100299.38;104680;1284;61368;-83
2023/07/03 04:42:40;;;;;;;;;;;;;;;27.61;40.91;100300.80;104610;1284;60065;-83
2023/07/03 04:45:07;;;;;;;;;;;;;;;27.61;41.18;100301.30;104257;1285;61391;-83
2023/07/03 04:47:32;;;;;;;;;;;;;;;27.61;41.14;100302.42;104269;1284;59332;-83
2023/07/03 04:49:58;;;;;;;;;;;;;;;27.60;40.89;100303.04;104194;1284;60627;-83
2023/07/03 04:52:27;;;;;;;;;;;;;;;27.59;41.13;100308.19;104271;1284;61604;-83
2023/07/03 04:54:53;;;;;;;;;;;;;;;27.58;40.97;100312.79;104787;1284;60527;-83
2023/07/03 04:57:20;;;;;;;;;;;;;;;27.57;41.32;100313.46;104458;1284;59929;-83
2023/07/03 04:59:46;;;;;;;;;;;;;;;27.58;41.19;100315.98;103906;1284;60150;-83
2023/07/03 05:02:16;;;;;;;;;;;;;;;27.56;41.17;100317.19;104260;1284;61398;-83
2023/07/03 05:04:42;;;;;;;;;;;;;;;27.56;41.03;100318.68;104248;1284;59934;-83
2023/07/03 05:07:08;;;;;;;;;;;;;;;27.56;41.20;100321.41;104164;1284;62008;-83
2023/07/03 05:09:33;;;;;;;;;;;;;;;27.55;41.41;100328.67;104274;1285;60135;-83
2023/07/03 05:12:00;;;;;;;;;;;;;;;27.55;41.23;100333.04;104352;1284;61415;-83
2023/07/03 05:14:25;;;;;;;;;;;;;;;27.55;41.25;100332.91;104637;1284;61313;-83
2023/07/03 05:16:51;;;;;;;;;;;;;;;27.54;41.22;100333.83;104588;1284;59999;-83
2023/07/03 05:19:16;;;;;;;;;;;;;;;27.55;41.31;100332.70;104435;1284;60155;-83
2023/07/03 05:21:41;;;;;;;;;;;;;;;27.55;41.41;100329.30;104562;1284;60044;-83
2023/07/03 05:24:07;;;;;;;;;;;;;;;27.55;41.20;100331.55;104252;1286;61343;-83
2023/07/03 05:26:32;;;;;;;;;;;;;;;27.56;41.26;100331.45;104109;1286;60091;-83
2023/07/03 05:28:58;;;;;;;;;;;;;;;27.57;41.30;100334.95;104348;1286;61902;-83
2023/07/03 05:31:23;;;;;;;;;;;;;;;27.59;41.26;100330.11;104648;1284;61369;-83
2023/07/03 05:33:49;;;;;;;;;;;;;;;27.60;41.24;100326.32;104866;1285;59982;-83
2023/07/03 05:36:15;;;;;;;;;;;;;;;27.62;41.35;100326.93;104866;1285;61271;-83
2023/07/03 05:38:41;;;;;;;;;;;;;;;27.63;41.13;100329.52;104999;1282;60049;-83
2023/07/03 05:41:06;;;;;;;;;;;;;;;27.64;41.12;100336.77;104711;1284;61376;-83
2023/07/03 05:43:32;;;;;;;;;;;;;;;27.66;41.34;100338.08;104950;1284;59394;-83
2023/07/03 05:45:57;;;;;;;;;;;;;;;27.67;41.21;100339.94;104925;1284;65023;-83
2023/07/03 05:48:23;;;;;;;;;;;;;;;27.68;41.41;100342.31;104963;1284;62153;-83
2023/07/03 05:50:49;;;;;;;;;;;;;;;27.70;41.56;100348.29;104785;1284;61401;-84
2023/07/03 05:53:15;;;;;;;;;;;;;;;27.70;41.38;100345.53;104518;1282;61335;-83
2023/07/03 05:55:41;;;;;;;;;;;;;;;27.71;41.44;100345.84;104849;1284;62180;-83
2023/07/03 05:58:06;;;;;;;;;;;;;;;27.70;41.57;100350.09;104928;1284;61368;-83
2023/07/03 06:00:32;;;;;;;;;;;;;;;27.70;41.44;100356.20;104894;1284;60112;-83
2023/07/03 06:02:58;;;;;;;;;;;;;;;27.72;41.35;100360.94;104535;1284;60092;-84
2023/07/03 06:05:24;;;;;;;;;;;;;;;27.72;41.48;100365.21;104404;1284;61385;-83
2023/07/03 06:07:50;;;;;;;;;;;;;;;27.74;41.46;100367.92;104047;1284;60474;-83
2023/07/03 06:10:15;;;;;;;;;;;;;;;27.74;41.47;100369.86;104200;1284;62154;-83
2023/07/03 06:12:42;;;;;;;;;;;;;;;27.75;41.56;100370.54;103635;1284;61453;-83
2023/07/03 06:15:07;;;;;;;;;;;;;;;27.76;41.57;100371.14;103893;1284;61466;-83
2023/07/03 06:17:33;;;;;;;;;;;;;;;27.75;41.40;100366.13;104615;1284;62267;-82
2023/07/03 06:19:58;;;;;;;;;;;;;;;27.76;41.33;100368.02;104966;1285;64704;-83
2023/07/03 06:22:23;;;;;;;;;;;;;;;27.77;41.60;100369.73;104500;1284;61486;-84
2023/07/03 06:24:49;;;;;;;;;;;;;;;27.79;41.64;100371.42;104533;1284;59870;-84
2023/07/03 06:27:14;;;;;;;;;;;;;;;27.79;41.52;100368.67;104779;1284;60042;-83
2023/07/03 06:29:40;;;;;;;;;;;;;;;27.80;41.55;100368.23;104771;1283;61271;-83
2023/07/03 06:32:06;;;;;;;;;;;;;;;27.81;41.51;100370.11;104741;1285;61452;-83
2023/07/03 06:34:32;;;;;;;;;;;;;;;27.81;41.58;100371.50;105066;1284;61410;-83
2023/07/03 06:37:00;;;;;;;;;;;;;;;27.82;41.42;100378.98;105291;1283;58963;-83
2023/07/03 06:39:25;;;;;;;;;;;;;;;27.83;41.37;100380.75;104631;1284;62120;-83
2023/07/03 06:41:51;;;;;;;;;;;;;;;27.82;41.44;100382.38;104631;1287;61359;-83
2023/07/03 06:44:16;;;;;;;;;;;;;;;27.83;41.52;100385.55;104855;1284;59927;-83
2023/07/03 06:46:42;;;;;;;;;;;;;;;27.84;41.37;100382.23;104767;1284;60383;-84
2023/07/03 06:49:07;;;;;;;;;;;;;;;27.84;41.77;100382.16;104655;1284;60189;-83
2023/07/03 06:51:33;;;;;;;;;;;;;;;27.85;41.55;100379.23;105060;1284;59373;-83
2023/07/03 06:53:58;;;;;;;;;;;;;;;27.86;41.50;100378.95;105041;1283;60918;-83
2023/07/03 06:56:24;;;;;;;;;;;;;;;27.86;41.61;100379.42;104939;1283;59999;-83
2023/07/03 06:58:49;;;;;;;;;;;;;;;27.87;41.73;100376.77;105129;1285;60377;-83
2023/07/03 07:01:16;;;;;;;;;;;;;;;27.88;41.64;100381.23;105380;1283;60409;-83
2023/07/03 07:03:42;;;;;;;;;;;;;;;27.88;41.75;100376.34;104535;1285;62513;-83
2023/07/03 07:06:11;;;;;;;;;;;;;;;27.89;41.63;100376.21;103981;1284;61383;-83
2023/07/03 07:08:37;;;;;;;;;;;;;;;27.90;41.57;100382.98;103923;1287;702434;-83
2023/07/03 07:11:06;;;;;;;;;;;;;;;27.91;41.29;100386.89;104737;1284;61231;-83
2023/07/03 07:13:32;;;;;;;;;;;;;;;27.91;41.42;100389.44;104515;1285;61293;-83
2023/07/03 07:15:57;;;;;;;;;;;;;;;27.92;41.50;100393.84;104034;1284;60053;-83
2023/07/03 07:18:22;;;;;;;;;;;;;;;27.92;41.69;100390.79;104233;1284;61476;-83
2023/07/03 07:20:48;;;;;;;;;;;;;;;27.91;41.38;100399.49;104757;1284;60512;-83
2023/07/03 07:23:13;;;;;;;;;;;;;;;27.91;41.47;100398.32;104599;1283;60032;-83
2023/07/03 07:25:38;;;;;;;;;;;;;;;27.89;41.37;100399.39;104309;1285;59774;-83
2023/07/03 07:28:04;;;;;;;;;;;;;;;27.88;41.37;100400.58;104344;1283;61385;-83
2023/07/03 07:30:31;;;;;;;;;;;;;;;27.88;41.37;100404.52;104939;1284;60057;-83
2023/07/03 07:32:57;;;;;;;;;;;;;;;27.89;41.46;100405.39;104563;1285;59360;-83
2023/07/03 07:35:22;;;;;;;;;;;;;;;27.88;41.28;100408.70;104683;1284;60187;-83
2023/07/03 07:37:48;;;;;;;;;;;;;;;27.85;41.35;100407.05;104917;1284;60067;-83
2023/07/03 07:40:13;;;;;;;;;;;;;;;27.84;41.66;100404.96;105247;1286;75788;-83
2023/07/03 07:42:39;;;;;;;;;;;;;;;27.85;41.52;100406.00;104898;1283;60107;-83
2023/07/03 07:45:04;;;;;;;;;;;;;;;27.85;41.16;100407.41;104636;1284;61450;-83
2023/07/03 07:47:30;;;;;;;;;;;;;;;27.85;41.44;100409.05;104950;1284;59347;-83
2023/07/03 07:49:58;;;;;;;;;;;;;;;27.85;41.42;100406.23;104421;1288;61186;-83
2023/07/03 07:52:24;;;;;;;;;;;;;;;27.85;41.40;100405.27;105143;1284;64213;-83
2023/07/03 07:54:53;;;;;;;;;;;;;;;27.86;41.22;100406.06;104834;1284;60006;-83
2023/07/03 07:57:19;;;;;;;;;;;;;;;27.87;41.62;100409.36;104967;1284;61398;-83
2023/07/03 07:59:44;;;;;;;;;;;;;;;27.89;41.25;100409.36;105123;1284;60057;-83
2023/07/03 08:02:10;;;;;;;;;;;;;;;27.90;41.49;100407.84;104675;1282;59931;-83
2023/07/03 08:04:35;;;;;;;;;;;;;;;27.90;41.32;100411.75;104395;1284;60234;-83
2023/07/03 08:07:00;;;;;;;;;;;;;;;27.90;41.24;100415.34;104759;1284;59780;-83
2023/07/03 08:09:26;;;;;;;;;;;;;;;27.91;41.21;100414.69;104805;1284;61121;-83
2023/07/03 08:11:52;;;;;;;;;;;;;;;27.91;41.21;100413.65;104390;1284;61326;-83
2023/07/03 08:14:18;;;;;;;;;;;;;;;27.91;41.16;100415.27;104237;1285;59440;-83
2023/07/03 08:16:43;;;;;;;;;;;;;;;27.91;41.16;100418.48;104347;1287;61290;-83
2023/07/03 08:19:09;;;;;;;;;;;;;;;27.92;41.12;100419.68;104719;1284;61383;-84
2023/07/03 08:21:35;;;;;;;;;;;;;;;27.92;41.21;100411.89;104682;1284;61401;-84
2023/07/03 08:24:01;;;;;;;;;;;;;;;27.92;41.14;100412.42;104137;1285;61322;-84
2023/07/03 08:26:27;;;;;;;;;;;;;;;27.92;41.08;100418.40;104158;1287;61392;-84
2023/07/03 08:28:53;;;;;;;;;;;;;;;27.92;40.89;100421.67;104060;1284;61278;-84
2023/07/03 08:31:18;;;;;;;;;;;;;;;27.90;40.99;100420.77;104703;1284;60014;-84
2023/07/03 08:33:44;;;;;;;;;;;;;;;27.90;40.93;100423.52;104356;1284;61861;-83
2023/07/03 08:36:09;;;;;;;;;;;;;;;27.89;40.92;100424.16;104827;1284;59346;-84
2023/07/03 08:38:35;;;;;;;;;;;;;;;27.88;40.76;100420.90;103945;1289;62163;-84
2023/07/03 08:41:01;;;;;;;;;;;;;;;27.87;40.81;100421.73;104075;1284;60073;-83
2023/07/03 08:43:34;;;;;;;;;;;;;;;27.88;41.21;100419.97;104279;1284;61347;-84
2023/07/03 08:45:59;;;;;;;;;;;;;;;27.89;41.09;100419.13;104324;1285;60049;-84
2023/07/03 08:48:25;;;;;;;;;;;;;;;27.89;41.04;100426.17;103213;1284;62266;-84
2023/07/03 08:50:58;;;;;;;;;;;;;;;27.89;40.94;100424.67;103395;1286;60038;-84
2023/07/03 08:53:27;;;;;;;;;;;;;;;27.90;40.98;100423.88;103185;1286;61366;-84
2023/07/03 08:56:16;;;;;;;;;;;;;;;27.91;41.15;100427.27;103849;1283;61365;-84
2023/07/03 08:58:46;;;;;;;;;;;;;;;27.91;40.94;100426.16;103611;1287;64744;-83
2023/07/03 09:01:18;;;;;;;;;;;;;;;27.91;40.94;100421.81;103504;1286;65875;-84
2023/07/03 09:03:55;;;;;;;;;;;;;;;27.91;40.93;100418.31;103574;1286;62318;-83
2023/07/03 09:06:23;;;;;;;;;;;;;;;27.91;40.95;100425.72;103440;1288;61367;-83
2023/07/03 09:08:58;;;;;;;;;;;;;;;27.92;40.93;100429.85;103296;1285;63679;-84
2023/07/03 09:11:24;;;;;;;;;;;;;;;27.91;40.86;100425.92;103964;1286;66511;-84
2023/07/03 09:13:50;;;;;;;;;;;;;;;27.91;40.77;100427.67;103773;1287;60263;-84
2023/07/03 09:16:18;;;;;;;;;;;;;;;27.92;40.94;100426.86;103152;1286;62294;-84
2023/07/03 09:18:56;;;;;;;;;;;;;;;27.93;40.93;100426.30;103699;1285;63761;-84
2023/07/03 09:21:22;;;;;;;;;;;;;;;27.92;40.94;100426.54;103723;1286;66855;-83
2023/07/03 09:23:53;;;;;;;;;;;;;;;27.92;40.91;100425.11;103447;1288;61365;-83
2023/07/03 09:26:33;;;;;;;;;;;;;;;27.91;40.86;100423.00;104526;1283;61240;-83
2023/07/03 09:28:59;;;;;;;;;;;;;;;27.93;40.82;100424.66;106261;1283;63691;-84
2023/07/03 09:31:26;;;;;;;;;;;;;;;27.94;40.85;100423.83;104349;1284;61214;-83
2023/07/03 09:33:52;;;;;;;;;;;;;;;27.95;40.97;100426.30;104312;1284;60054;-84
2023/07/03 09:36:20;;;;;;;;;;;;;;;27.95;40.86;100425.14;103835;1284;61371;-84
2023/07/03 09:38:47;;;;;;;;;;;;;;;27.96;40.88;100417.86;103777;1289;63875;-83
2023/07/03 09:41:13;;;;;;;;;;;;;;;27.97;40.88;100416.70;103844;1288;66747;-83
2023/07/03 09:43:42;;;;;;;;;;;;;;;27.96;40.87;100412.03;103732;1284;62206;-83
2023/07/03 09:46:09;;;;;;;;;;;;;;;27.96;40.88;100408.23;103492;1285;61282;-83
2023/07/03 09:48:35;;;;;;;;;;;;;;;27.97;40.92;100413.98;103157;1286;63872;-83
2023/07/03 09:51:03;;;;;;;;;;;;;;;27.97;41.01;100412.10;103625;1284;61263;-83
2023/07/03 09:53:30;;;;;;;;;;;;;;;27.98;40.93;100409.73;103791;1286;61424;-83
2023/07/03 09:55:57;;;;;;;;;;;;;;;27.98;40.91;100403.73;103129;1286;62302;-83
2023/07/03 09:58:23;;;;;;;;;;;;;;;27.99;40.92;100406.52;103204;1284;59953;-83
2023/07/03 10:00:49;;;;;;;;;;;;;;;27.99;40.87;100405.19;103579;1288;61175;-83
2023/07/03 10:03:23;;;;;;;;;;;;;;;28.00;40.94;100406.77;103754;1288;62245;-83
2023/07/03 10:05:48;;;;;;;;;;;;;;;28.00;40.88;100406.90;103792;1283;59966;-83
2023/07/03 10:08:14;;;;;;;;;;;;;;;28.00;40.73;100405.10;104353;1283;61222;-83
2023/07/03 10:10:42;;;;;;;;;;;;;;;28.01;40.81;100396.39;104019;1284;61384;-83
2023/07/03 10:13:16;;;;;;;;;;;;;;;28.01;40.74;100388.41;103421;1283;61411;-83
2023/07/03 10:15:41;;;;;;;;;;;;;;;28.01;40.68;100388.42;103374;1284;61411;-83
2023/07/03 10:18:07;;;;;;;;;;;;;;;28.01;40.85;100393.86;103529;1284;61382;-83
2023/07/03 10:20:33;;;;;;;;;;;;;;;28.00;41.02;100392.60;103412;1285;61388;-83
2023/07/03 10:22:59;;;;;;;;;;;;;;;28.00;40.92;100394.48;103345;1284;61253;-83
2023/07/03 10:25:27;;;;;;;;;;;;;;;28.00;40.69;100396.12;103132;1285;61473;-84
2023/07/03 10:27:55;;;;;;;;;;;;;;;27.99;40.82;100401.98;103496;1288;61444;-83
2023/07/03 10:30:21;;;;;;;;;;;;;;;27.99;40.81;100390.27;103241;1284;61273;-83
2023/07/03 10:32:49;;;;;;;;;;;;;;;27.98;40.78;100386.36;103334;1284;61418;-83
2023/07/03 10:35:21;;;;;;;;;;;;;;;27.98;40.98;100381.85;103295;1289;61329;-83
2023/07/03 10:37:49;;;;;;;;;;;;;;;27.97;40.61;100376.92;104104;1285;63888;-84
2023/07/03 10:40:17;;;;;;;;;;;;;;;27.96;40.91;100375.20;103702;1288;65879;-84
2023/07/03 10:42:47;;;;;;;;;;;;;;;27.96;41.08;100377.01;103885;1285;61251;-84
2023/07/03 10:45:13;;;;;;;;;;;;;;;27.96;40.78;100378.42;104365;1282;59886;-84
2023/07/03 10:47:43;;;;;;;;;;;;;;;27.97;40.83;100382.87;104187;1282;62165;-84
2023/07/03 10:50:08;;;;;;;;;;;;;;;27.97;41.06;100382.86;104051;1283;65804;-84
2023/07/03 10:52:52;;;;;;;;;;;;;;;27.96;40.87;100388.02;104257;1282;61327;-84
2023/07/03 10:55:24;;;;;;;;;;;;;;;27.96;41.00;100385.61;104837;1284;60154;-83
2023/07/03 10:57:55;;;;;;;;;;;;;;;27.96;41.04;100385.65;104550;1285;63664;-85
2023/07/03 11:00:25;;;;;;;;;;;;;;;27.96;40.95;100387.11;103922;1288;65875;-84
2023/07/03 11:02:57;;;;;;;;;;;;;;;27.95;40.96;100390.42;103972;1283;61387;-84
2023/07/03 11:05:25;;;;;;;;;;;;;;;27.95;41.03;100396.39;103720;1283;59930;-84
2023/07/03 11:07:51;;;;;;;;;;;;;;;27.96;40.97;100396.19;105328;1283;63976;-84
2023/07/03 11:10:22;;;;;;;;;;;;;;;27.95;40.65;100389.77;104904;1284;61328;-83
2023/07/03 11:12:53;;;;;;;;;;;;;;;27.95;40.79;100382.36;104167;1282;59975;-83
2023/07/03 11:15:43;;;;;;;;;;;;;;;27.95;40.96;100382.70;104129;1284;61182;-83
2023/07/03 11:18:16;;;;;;;;;;;;;;;27.95;40.75;100379.77;103814;1287;64014;-84
2023/07/03 11:20:46;;;;;;;;;;;;;;;27.96;40.63;100379.34;103853;1289;66666;-84
2023/07/03 11:23:27;;;;;;;;;;;;;;;27.96;40.72;100379.68;103118;1289;60072;-83
2023/07/03 11:26:05;;;;;;;;;;;;;;;27.97;40.87;100379.45;103088;1288;62039;-83
2023/07/03 11:28:30;;;;;;;;;;;;;;;27.97;40.83;100380.13;103531;1288;63715;-83
2023/07/03 11:30:55;;;;;;;;;;;;;;;27.98;40.72;100381.84;103329;1288;61397;-83
2023/07/03 11:33:21;;;;;;;;;;;;;;;27.98;40.78;100383.65;103584;1289;60000;-83
2023/07/03 11:35:50;;;;;;;;;;;;;;;27.99;40.54;100383.59;103400;1289;62157;-83
2023/07/03 11:38:18;;;;;;;;;;;;;;;27.98;40.65;100379.45;103882;1291;65042;-83
2023/07/03 11:40:49;;;;;;;;;;;;;;;27.99;40.75;100380.61;103797;1288;65814;-84
2023/07/03 11:43:15;;;;;;;;;;;;;;;27.99;40.81;100381.33;103136;1288;61272;-84
2023/07/03 11:45:40;;;;;;;;;;;;;;;27.99;40.84;100379.70;103287;1289;61352;-84
2023/07/03 11:48:24;;;;;;;;;;;;;;;28.00;40.65;100381.09;103575;1291;61342;-84
2023/07/03 11:50:53;;;;;;;;;;;;;;;28.00;40.60;100377.98;103178;1288;66143;-84
2023/07/03 11:53:34;;;;;;;;;;;;;;;28.00;40.75;100375.45;102992;1289;61340;-84
2023/07/03 11:56:00;;;;;;;;;;;;;;;28.00;40.70;100373.48;103329;1283;61244;-84
2023/07/03 11:58:26;;;;;;;;;;;;;;;28.00;40.72;100373.64;104488;1284;61377;-85
2023/07/03 12:01:11;;;;;;;;;;;;;;;28.00;40.82;100372.91;103617;1283;61392;-84
2023/07/03 12:04:02;;;;;;;;;;;;;;;28.00;40.67;100370.04;103715;1284;61377;-84
2023/07/03 12:06:46;;;;;;;;;;;;;;;28.00;40.89;100370.03;103546;1283;61226;-84
2023/07/03 12:09:21;;;;;;;;;;;;;;;28.00;40.68;100368.77;103979;1285;63832;-84
2023/07/03 12:12:07;;;;;;;;;;;;;;;28.00;40.58;100365.52;103969;1285;66954;-84
2023/07/03 12:14:44;;;;;;;;;;;;;;;28.00;40.74;100364.43;103500;1285;61372;-84
2023/07/03 12:17:16;;;;;;;;;;;;;;;27.99;40.59;100363.59;103756;1284;61212;-84
2023/07/03 12:19:42;;;;;;;;;;;;;;;27.99;40.71;100364.13;104347;1283;64901;-84
2023/07/03 12:22:07;;;;;;;;;;;;;;;28.00;40.78;100366.81;103855;1287;61385;-83
2023/07/03 12:24:33;;;;;;;;;;;;;;;27.99;40.64;100364.16;103652;1283;61384;-84
2023/07/03 12:27:03;;;;;;;;;;;;;;;27.99;40.65;100365.05;104138;1285;61339;-84